Time;durP1;ratioP1;P1;durP2;ratioP2;P2;SDS_P1;SDS_P2;PMS_P1;PMS_P2;Temp;Humidity;BMP_temperature;BMP_pressure;BME280_temperature;BME280_humidity;BME280_pressure;Samples;Min_cycle;Max_cycle;Signal;HPM_P1;HPM_P2
2022/03/31 00:01:02;;;;;;;;;;;9.40;99.90;;;;;;5093303;28;19908;-47
2022/03/31 00:03:28;;;;;;;;;;;9.40;99.90;;;;;;5093593;28;19948;-49
2022/03/31 00:05:54;;;;;;;;;;;9.30;99.90;;;;;;5093386;28;19912;-49
2022/03/31 00:08:20;;;;;;;;;;;9.40;99.90;;;;;;5093154;28;19908;-45
2022/03/31 00:10:50;;;;;;;;;;;9.30;99.90;;;;;;5093323;28;19991;-45
2022/03/31 00:13:17;;;;;;;;;;;9.40;99.90;;;;;;5093395;28;19910;-46
2022/03/31 00:15:43;;;;;;;;;;;9.40;99.90;;;;;;5093338;28;19911;-46
2022/03/31 00:18:09;;;;;;;;;;;9.30;99.90;;;;;;5093325;28;20257;-47
2022/03/31 00:32:47;;;;;;;;;;;9.40;99.90;;;;;;5096649;28;19961;-45
2022/03/31 00:35:13;;;;;;;;;;;9.50;99.90;;;;;;5096717;28;19908;-46
2022/03/31 00:37:39;;;;;;;;;;;9.30;99.90;;;;;;5096502;28;20382;-47
2022/03/31 00:40:05;;;;;;;;;;;9.30;99.90;;;;;;5096608;28;19934;-45
2022/03/31 00:42:31;;;;;;;;;;;9.10;99.90;;;;;;5096649;28;19912;-46
2022/03/31 00:44:56;;;;;;;;;;;9.00;99.90;;;;;;5096350;28;19944;-46
2022/03/31 00:47:22;;;;;;;;;;;8.90;99.90;;;;;;5096410;27;19904;-47
2022/03/31 00:49:48;;;;;;;;;;;8.80;99.90;;;;;;5096501;28;19904;-45
2022/03/31 00:52:13;;;;;;;;;;;8.80;99.90;;;;;;5096537;28;20012;-47
2022/03/31 00:54:40;;;;;;;;;;;8.90;99.90;;;;;;5096735;28;20269;-49
2022/03/31 00:57:07;;;;;;;;;;;8.90;99.90;;;;;;5096770;28;19944;-48
2022/03/31 00:59:33;;;;;;;;;;;8.70;99.90;;;;;;5096210;28;19908;-45
2022/03/31 01:01:59;;;;;;;;;;;8.60;99.90;;;;;;5096272;28;19919;-47
2022/03/31 01:04:29;;;;;;;;;;;8.50;99.90;;;;;;5096376;28;19904;-49
2022/03/31 01:06:55;;;;;;;;;;;8.40;99.90;;;;;;5095897;28;19911;-50
2022/03/31 01:09:20;;;;;;;;;;;8.30;99.90;;;;;;5095854;28;19998;-49
2022/03/31 01:11:46;;;;;;;;;;;8.10;99.90;;;;;;5096236;28;19930;-47
2022/03/31 01:14:12;;;;;;;;;;;8.10;99.90;;;;;;5095908;28;19973;-50
2022/03/31 01:16:38;;;;;;;;;;;8.10;99.90;;;;;;5095918;28;19991;-48
2022/03/31 01:19:08;;;;;;;;;;;8.10;99.90;;;;;;5095801;28;19908;-46
2022/03/31 01:21:41;;;;;;;;;;;8.00;99.90;;;;;;5095964;28;20011;-47
2022/03/31 01:24:08;;;;;;;;;;;8.00;99.90;;;;;;5095899;28;19934;-44
2022/03/31 01:26:34;;;;;;;;;;;8.10;99.90;;;;;;5095789;28;20254;-45
2022/03/31 01:29:00;;;;;;;;;;;8.10;99.90;;;;;;5095580;28;20006;-47
2022/03/31 01:31:26;;;;;;;;;;;8.00;99.90;;;;;;5095515;28;20049;-45
2022/03/31 01:33:52;;;;;;;;;;;8.00;99.90;;;;;;5095611;28;19904;-43
2022/03/31 01:36:19;;;;;;;;;;;8.00;99.90;;;;;;5127392;27;19957;-47
2022/03/31 01:38:45;;;;;;;;;;;8.00;99.90;;;;;;5095967;28;19911;-45
2022/03/31 01:41:10;;;;;;;;;;;8.00;99.90;;;;;;5095450;28;19908;-46
2022/03/31 01:43:36;;;;;;;;;;;8.00;99.90;;;;;;5095475;28;19908;-46
2022/03/31 01:46:02;;;;;;;;;;;8.00;99.90;;;;;;5095388;28;20256;-47
2022/03/31 01:48:27;;;;;;;;;;;7.90;99.90;;;;;;5095304;28;19904;-49
2022/03/31 01:50:53;;;;;;;;;;;8.00;99.90;;;;;;5095902;28;19904;-53
2022/03/31 01:53:19;;;;;;;;;;;8.10;99.90;;;;;;5095602;28;19908;-49
2022/03/31 01:55:45;;;;;;;;;;;8.10;99.90;;;;;;5095465;28;20009;-49
2022/03/31 01:58:10;;;;;;;;;;;8.20;99.90;;;;;;5095779;28;19908;-49
2022/03/31 02:00:36;;;;;;;;;;;8.10;99.90;;;;;;5093981;28;19908;-51
2022/03/31 02:03:02;;;;;;;;;;;8.20;99.90;;;;;;5095361;28;19947;-49
2022/03/31 02:05:27;;;;;;;;;;;8.30;99.90;;;;;;5094907;28;19904;-48
2022/03/31 02:07:54;;;;;;;;;;;8.40;99.90;;;;;;5094927;28;19934;-46
2022/03/31 02:10:19;;;;;;;;;;;8.40;99.90;;;;;;5095235;28;19915;-45
2022/03/31 02:12:46;;;;;;;;;;;8.50;99.90;;;;;;5095052;28;19904;-48
2022/03/31 02:15:12;;;;;;;;;;;8.50;99.90;;;;;;5094850;28;19947;-46
2022/03/31 02:17:37;;;;;;;;;;;8.40;99.90;;;;;;5095045;28;19950;-50
2022/03/31 02:20:03;;;;;;;;;;;8.30;99.90;;;;;;5094660;28;20406;-49
2022/03/31 02:22:29;;;;;;;;;;;8.30;99.90;;;;;;5087102;28;19967;-47
2022/03/31 02:24:54;;;;;;;;;;;8.20;99.90;;;;;;5113001;28;19962;-47
2022/03/31 02:27:20;;;;;;;;;;;8.00;99.90;;;;;;5110558;28;20408;-45
2022/03/31 02:29:45;;;;;;;;;;;7.90;99.90;;;;;;5092859;28;20025;-49
2022/03/31 02:32:11;;;;;;;;;;;7.80;99.90;;;;;;5091532;28;19920;-47
2022/03/31 02:34:36;;;;;;;;;;;7.80;99.90;;;;;;5093001;28;19919;-51
2022/03/31 02:37:02;;;;;;;;;;;7.80;99.90;;;;;;5096953;28;19911;-45
2022/03/31 02:39:31;;;;;;;;;;;7.90;99.90;;;;;;5089038;28;19908;-46
2022/03/31 02:41:57;;;;;;;;;;;7.80;99.90;;;;;;5092883;28;19916;-48
2022/03/31 02:44:23;;;;;;;;;;;7.80;99.90;;;;;;5091601;28;19908;-47
2022/03/31 02:46:48;;;;;;;;;;;7.70;99.90;;;;;;5092206;28;20049;-44
2022/03/31 02:49:14;;;;;;;;;;;7.70;99.90;;;;;;5092363;28;19947;-50
2022/03/31 02:51:39;;;;;;;;;;;7.70;99.90;;;;;;5091450;28;19908;-47
2022/03/31 02:56:49;;;;;;;;;;;7.80;99.90;;;;;;5091677;28;20476;-44
2022/03/31 02:59:14;;;;;;;;;;;7.70;99.90;;;;;;5093312;28;19909;-45
2022/03/31 03:01:42;;;;;;;;;;;7.70;99.90;;;;;;5092565;28;19923;-44
2022/03/31 03:04:08;;;;;;;;;;;7.60;99.90;;;;;;5092603;28;19908;-44
2022/03/31 03:06:33;;;;;;;;;;;7.70;99.90;;;;;;5092438;28;20283;-46
2022/03/31 03:08:59;;;;;;;;;;;7.70;99.90;;;;;;5092166;28;19912;-47
2022/03/31 03:11:25;;;;;;;;;;;7.60;99.90;;;;;;5089407;28;19912;-44
2022/03/31 03:13:51;;;;;;;;;;;7.60;99.90;;;;;;5092222;28;19912;-46
2022/03/31 03:16:17;;;;;;;;;;;7.40;99.90;;;;;;5089701;28;19931;-45
2022/03/31 03:18:42;;;;;;;;;;;7.30;99.90;;;;;;5089333;28;19919;-45
2022/03/31 03:21:08;;;;;;;;;;;7.30;99.90;;;;;;5092039;28;19912;-45
2022/03/31 03:23:35;;;;;;;;;;;7.40;99.90;;;;;;5093701;28;19916;-45
2022/03/31 03:26:03;;;;;;;;;;;7.40;99.90;;;;;;5093417;28;19912;-46
2022/03/31 03:28:29;;;;;;;;;;;7.40;99.90;;;;;;5093676;28;19958;-50
2022/03/31 03:30:55;;;;;;;;;;;7.40;99.90;;;;;;5091009;28;19920;-51
2022/03/31 03:33:20;;;;;;;;;;;7.40;99.90;;;;;;5097090;28;19957;-48
2022/03/31 03:35:46;;;;;;;;;;;7.40;99.90;;;;;;5113885;28;19969;-46
2022/03/31 03:38:12;;;;;;;;;;;7.50;99.90;;;;;;5100295;28;19953;-47
2022/03/31 03:40:37;;;;;;;;;;;7.50;99.90;;;;;;5093632;28;19920;-48
2022/03/31 03:43:04;;;;;;;;;;;7.60;99.90;;;;;;5083760;28;20003;-46
2022/03/31 03:45:30;;;;;;;;;;;7.70;99.90;;;;;;5106162;28;20281;-48
2022/03/31 03:47:55;;;;;;;;;;;7.60;99.90;;;;;;5109011;28;19908;-48
2022/03/31 03:50:21;;;;;;;;;;;7.60;99.90;;;;;;5090092;28;19928;-45
2022/03/31 03:52:46;;;;;;;;;;;7.70;99.90;;;;;;5084007;28;20017;-48
2022/03/31 03:55:12;;;;;;;;;;;7.80;99.90;;;;;;5096348;28;19934;-48
2022/03/31 03:57:38;;;;;;;;;;;8.00;99.90;;;;;;5093070;28;20287;-45
2022/03/31 04:00:04;;;;;;;;;;;8.00;99.90;;;;;;5096588;28;19959;-46
2022/03/31 04:02:29;;;;;;;;;;;8.00;99.90;;;;;;5097430;28;19966;-46
2022/03/31 04:04:55;;;;;;;;;;;8.10;99.90;;;;;;5097324;28;19912;-46
2022/03/31 04:07:21;;;;;;;;;;;8.10;99.90;;;;;;5092541;28;20313;-48
2022/03/31 04:09:46;;;;;;;;;;;8.10;99.90;;;;;;5096812;28;20248;-46
2022/03/31 04:12:12;;;;;;;;;;;8.00;99.90;;;;;;5097350;28;19908;-47
2022/03/31 04:14:37;;;;;;;;;;;8.10;99.90;;;;;;5097070;28;20404;-47
2022/03/31 04:17:03;;;;;;;;;;;8.10;99.90;;;;;;5096456;28;20283;-47
2022/03/31 04:19:28;;;;;;;;;;;8.20;99.90;;;;;;5092148;28;20004;-49
2022/03/31 04:21:54;;;;;;;;;;;8.20;99.90;;;;;;5096828;28;19966;-50
2022/03/31 04:24:19;;;;;;;;;;;8.20;99.90;;;;;;5106327;28;20125;-49
2022/03/31 04:26:45;;;;;;;;;;;8.20;99.90;;;;;;5116989;28;19908;-46
2022/03/31 04:29:11;;;;;;;;;;;8.30;99.90;;;;;;5117201;28;19912;-51
2022/03/31 04:31:42;;;;;;;;;;;8.40;99.90;;;;;;5116841;28;20362;-47
2022/03/31 04:34:08;;;;;;;;;;;8.40;99.90;;;;;;5093128;28;19919;-49
2022/03/31 04:36:35;;;;;;;;;;;8.30;99.90;;;;;;5091905;28;20274;-45
2022/03/31 04:39:00;;;;;;;;;;;8.30;99.90;;;;;;5111973;28;19907;-45
2022/03/31 04:41:26;;;;;;;;;;;8.30;99.90;;;;;;5115124;28;20295;-45
2022/03/31 04:43:51;;;;;;;;;;;8.20;99.90;;;;;;5096242;28;19912;-47
2022/03/31 04:46:18;;;;;;;;;;;8.20;99.90;;;;;;5096242;28;19933;-46
2022/03/31 04:48:44;;;;;;;;;;;8.40;99.90;;;;;;5096579;28;19976;-46
2022/03/31 04:51:09;;;;;;;;;;;8.30;99.90;;;;;;5095615;28;20434;-47
2022/03/31 04:53:37;;;;;;;;;;;8.20;99.90;;;;;;5091874;28;19973;-45
2022/03/31 04:56:03;;;;;;;;;;;8.10;99.90;;;;;;5094278;28;19915;-50
2022/03/31 04:58:28;;;;;;;;;;;8.20;99.90;;;;;;5094319;28;19912;-45
2022/03/31 05:00:54;;;;;;;;;;;8.20;99.90;;;;;;5092477;28;19985;-45
2022/03/31 05:03:20;;;;;;;;;;;8.30;99.90;;;;;;5093672;28;20012;-52
2022/03/31 05:05:45;;;;;;;;;;;8.40;99.90;;;;;;5093896;28;20354;-47
2022/03/31 05:08:11;;;;;;;;;;;8.50;99.90;;;;;;5093671;28;19915;-47
2022/03/31 05:10:37;;;;;;;;;;;8.50;99.90;;;;;;5094685;28;19916;-46
2022/03/31 05:13:02;;;;;;;;;;;8.50;99.90;;;;;;5095896;28;19987;-47
2022/03/31 05:15:28;;;;;;;;;;;8.60;99.90;;;;;;5095699;28;19912;-48
2022/03/31 05:17:53;;;;;;;;;;;8.60;99.90;;;;;;5095670;28;19937;-48
2022/03/31 05:20:20;;;;;;;;;;;8.70;99.90;;;;;;5095220;28;20003;-45
2022/03/31 05:22:46;;;;;;;;;;;8.70;99.90;;;;;;5095698;28;19958;-47
2022/03/31 05:25:12;;;;;;;;;;;8.70;99.90;;;;;;5095059;28;19912;-44
2022/03/31 05:27:45;;;;;;;;;;;8.70;99.90;;;;;;5095287;28;19908;-46
2022/03/31 05:30:11;;;;;;;;;;;8.80;99.90;;;;;;5095178;28;19958;-47
2022/03/31 05:32:37;;;;;;;;;;;8.80;99.90;;;;;;5095551;28;19924;-47
2022/03/31 05:35:03;;;;;;;;;;;8.80;99.90;;;;;;5095168;28;19915;-47
2022/03/31 05:37:28;;;;;;;;;;;8.80;99.90;;;;;;5095445;28;19958;-47
2022/03/31 05:39:54;;;;;;;;;;;8.80;99.90;;;;;;5094778;28;20365;-46
2022/03/31 05:42:19;;;;;;;;;;;8.80;99.90;;;;;;5095164;28;19918;-47
2022/03/31 05:44:45;;;;;;;;;;;8.80;99.90;;;;;;5094583;28;19908;-47
2022/03/31 05:47:10;;;;;;;;;;;8.90;99.90;;;;;;5094739;28;20303;-49
2022/03/31 05:49:36;;;;;;;;;;;8.90;99.90;;;;;;5094512;28;19977;-47
2022/03/31 05:52:01;;;;;;;;;;;9.00;99.90;;;;;;5093349;28;20001;-46
2022/03/31 05:54:28;;;;;;;;;;;8.90;99.90;;;;;;5094746;28;20018;-46
2022/03/31 05:56:53;;;;;;;;;;;9.00;99.90;;;;;;5094448;28;20240;-51
2022/03/31 05:59:19;;;;;;;;;;;9.10;99.90;;;;;;5094888;28;19920;-49
2022/03/31 06:01:44;;;;;;;;;;;9.10;99.90;;;;;;5094128;28;19962;-47
2022/03/31 06:04:10;;;;;;;;;;;9.10;99.90;;;;;;5094697;28;19961;-47
2022/03/31 06:06:35;;;;;;;;;;;9.10;99.90;;;;;;5094599;28;19914;-47
2022/03/31 06:09:01;;;;;;;;;;;9.20;99.90;;;;;;5094127;28;19908;-48
2022/03/31 06:11:26;;;;;;;;;;;9.20;99.90;;;;;;5094181;28;20282;-46
2022/03/31 06:13:52;;;;;;;;;;;9.20;99.90;;;;;;5094381;28;19909;-44
2022/03/31 06:16:17;;;;;;;;;;;9.20;99.90;;;;;;5094118;28;19915;-48
2022/03/31 06:18:43;;;;;;;;;;;9.20;99.90;;;;;;5094510;28;19915;-45
2022/03/31 06:21:08;;;;;;;;;;;9.20;99.90;;;;;;5092110;28;19927;-48
2022/03/31 06:23:34;;;;;;;;;;;9.20;99.90;;;;;;5093857;28;19912;-45
2022/03/31 06:25:59;;;;;;;;;;;9.30;99.90;;;;;;5094379;28;19955;-48
2022/03/31 06:28:28;;;;;;;;;;;9.30;99.90;;;;;;5094037;28;19908;-48
2022/03/31 06:30:54;;;;;;;;;;;9.30;99.90;;;;;;5093884;28;20010;-47
2022/03/31 06:33:20;;;;;;;;;;;9.50;99.90;;;;;;5094158;28;19943;-45
2022/03/31 06:35:46;;;;;;;;;;;9.60;99.90;;;;;;5093378;28;19912;-47
2022/03/31 06:38:12;;;;;;;;;;;9.60;99.90;;;;;;5094002;28;19909;-48
2022/03/31 06:40:38;;;;;;;;;;;9.60;99.90;;;;;;5092653;28;19912;-47
2022/03/31 06:43:04;;;;;;;;;;;9.60;99.90;;;;;;5088290;28;19917;-47
2022/03/31 06:45:30;;;;;;;;;;;9.70;99.90;;;;;;5107677;28;19936;-45
2022/03/31 06:47:56;;;;;;;;;;;9.80;99.90;;;;;;5101753;28;19908;-46
2022/03/31 06:50:22;;;;;;;;;;;9.90;99.90;;;;;;5093981;28;19908;-48
2022/03/31 06:52:47;;;;;;;;;;;10.00;99.90;;;;;;5093969;28;19916;-47
2022/03/31 06:55:13;;;;;;;;;;;10.00;99.90;;;;;;5089181;28;19923;-46
2022/03/31 06:57:38;;;;;;;;;;;10.10;99.90;;;;;;5100711;28;20006;-47
2022/03/31 07:00:05;;;;;;;;;;;10.10;99.90;;;;;;5101654;28;19912;-48
2022/03/31 07:02:31;;;;;;;;;;;10.10;99.90;;;;;;5088640;28;19916;-47
2022/03/31 07:04:57;;;;;;;;;;;10.00;99.90;;;;;;5093370;28;20273;-46
2022/03/31 07:07:24;;;;;;;;;;;10.20;99.90;;;;;;5093129;28;19949;-46
2022/03/31 07:09:51;;;;;;;;;;;10.10;99.90;;;;;;5093726;28;19912;-48
2022/03/31 07:12:16;;;;;;;;;;;10.20;99.90;;;;;;5093581;28;19915;-49
2022/03/31 07:14:43;;;;;;;;;;;10.30;99.90;;;;;;5093415;28;19909;-48
2022/03/31 07:17:09;;;;;;;;;;;10.40;99.90;;;;;;5093225;28;19912;-47
2022/03/31 07:19:35;;;;;;;;;;;10.30;99.90;;;;;;5102480;28;19908;-48
2022/03/31 07:22:01;;;;;;;;;;;10.50;99.90;;;;;;5113780;28;19961;-50
2022/03/31 07:24:26;;;;;;;;;;;10.50;99.90;;;;;;5112076;28;19915;-49
2022/03/31 07:26:52;;;;;;;;;;;10.60;99.90;;;;;;5090281;28;19951;-50
2022/03/31 07:29:17;;;;;;;;;;;10.60;99.90;;;;;;5091636;28;19962;-48
2022/03/31 07:31:43;;;;;;;;;;;10.70;99.90;;;;;;5096281;28;19952;-48
2022/03/31 07:34:08;;;;;;;;;;;10.80;99.90;;;;;;5094375;28;20436;-47
2022/03/31 07:36:34;;;;;;;;;;;11.00;99.90;;;;;;5102160;28;19911;-48
2022/03/31 07:39:00;;;;;;;;;;;11.20;99.90;;;;;;5101533;28;19912;-48
2022/03/31 07:41:25;;;;;;;;;;;11.20;99.90;;;;;;5077668;28;19916;-48
2022/03/31 07:43:51;;;;;;;;;;;11.40;99.90;;;;;;5077059;28;19927;-49
2022/03/31 07:46:16;;;;;;;;;;;11.70;99.90;;;;;;5104946;28;19912;-45
2022/03/31 07:48:42;;;;;;;;;;;11.80;99.90;;;;;;5077423;28;19966;-49
2022/03/31 07:51:08;;;;;;;;;;;12.10;99.90;;;;;;5077229;28;20295;-47
2022/03/31 07:53:34;;;;;;;;;;;12.30;99.90;;;;;;5077627;28;19938;-47
2022/03/31 07:56:00;;;;;;;;;;;12.60;99.90;;;;;;5082339;28;19912;-45
2022/03/31 07:58:25;;;;;;;;;;;12.70;99.90;;;;;;5096920;28;19915;-47
2022/03/31 08:00:52;;;;;;;;;;;12.70;99.90;;;;;;5088937;28;20271;-45
2022/03/31 08:03:18;;;;;;;;;;;12.90;99.90;;;;;;5078968;28;19916;-46
2022/03/31 08:05:44;;;;;;;;;;;12.90;99.90;;;;;;5082171;28;19938;-48
2022/03/31 08:08:10;;;;;;;;;;;13.00;99.90;;;;;;5091192;28;19908;-47
2022/03/31 08:10:36;;;;;;;;;;;12.90;99.90;;;;;;5108611;28;20342;-47
2022/03/31 08:13:01;;;;;;;;;;;13.10;99.90;;;;;;5094214;28;19912;-52
2022/03/31 08:15:27;;;;;;;;;;;12.90;99.90;;;;;;5092163;28;20325;-50
2022/03/31 08:17:52;;;;;;;;;;;12.90;99.90;;;;;;5081648;28;19912;-49
2022/03/31 08:20:18;;;;;;;;;;;12.70;99.90;;;;;;5083368;28;19916;-50
2022/03/31 08:22:44;;;;;;;;;;;12.60;99.90;;;;;;5096270;28;19942;-46
2022/03/31 08:25:10;;;;;;;;;;;12.40;99.90;;;;;;5096522;28;19915;-46
2022/03/31 08:27:37;;;;;;;;;;;12.30;99.90;;;;;;5096123;28;19911;-46
2022/03/31 08:30:07;;;;;;;;;;;12.10;99.90;;;;;;5094701;28;19912;-48
2022/03/31 08:32:35;;;;;;;;;;;12.10;99.90;;;;;;5096020;28;19964;-48
2022/03/31 08:35:01;;;;;;;;;;;12.10;99.90;;;;;;5096189;28;19908;-45
2022/03/31 08:37:27;;;;;;;;;;;12.20;99.90;;;;;;5095711;28;20281;-47
2022/03/31 08:39:52;;;;;;;;;;;12.30;99.90;;;;;;5095984;28;19919;-46
2022/03/31 08:42:18;;;;;;;;;;;12.40;99.90;;;;;;5095537;28;20029;-47
2022/03/31 08:44:44;;;;;;;;;;;12.50;99.90;;;;;;5082166;28;19919;-49
2022/03/31 08:47:09;;;;;;;;;;;12.40;99.90;;;;;;5081841;28;19924;-47
2022/03/31 08:49:35;;;;;;;;;;;12.70;99.90;;;;;;5101351;28;20007;-50
2022/03/31 08:52:01;;;;;;;;;;;12.80;99.90;;;;;;5101465;28;20243;-46
2022/03/31 08:54:26;;;;;;;;;;;12.90;99.90;;;;;;5095917;28;19916;-47
2022/03/31 08:56:53;;;;;;;;;;;12.40;99.90;;;;;;5107475;28;19965;-49
2022/03/31 08:59:19;;;;;;;;;;;12.40;99.90;;;;;;5078853;28;19924;-49
2022/03/31 09:01:44;;;;;;;;;;;12.60;99.90;;;;;;5084762;28;19916;-47
2022/03/31 09:04:19;;;;;;;;;;;12.60;99.90;;;;;;5076600;28;19920;-52
2022/03/31 09:06:47;;;;;;;;;;;12.10;99.90;;;;;;5076623;28;19919;-45
2022/03/31 09:09:14;;;;;;;;;;;11.90;99.90;;;;;;5075250;28;19953;-50
2022/03/31 09:11:44;;;;;;;;;;;11.90;99.90;;;;;;5075626;28;19942;-50
2022/03/31 09:14:09;;;;;;;;;;;11.60;99.90;;;;;;5086578;28;19916;-47
2022/03/31 09:16:36;;;;;;;;;;;11.40;99.90;;;;;;5092129;28;19912;-49
2022/03/31 09:19:03;;;;;;;;;;;11.60;99.90;;;;;;5090632;28;20362;-46
2022/03/31 09:21:30;;;;;;;;;;;11.40;99.90;;;;;;5104691;28;20370;-42
2022/03/31 09:23:56;;;;;;;;;;;11.70;99.90;;;;;;5097846;28;19920;-48
2022/03/31 09:26:22;;;;;;;;;;;11.90;99.90;;;;;;5096048;28;20274;-50
2022/03/31 09:28:50;;;;;;;;;;;12.10;99.90;;;;;;5093840;28;19916;-49
2022/03/31 09:31:21;;;;;;;;;;;12.10;99.90;;;;;;5109357;28;19928;-45
2022/03/31 09:33:53;;;;;;;;;;;12.10;99.90;;;;;;5096146;28;20300;-47
2022/03/31 09:36:19;;;;;;;;;;;12.10;99.90;;;;;;5095962;28;19919;-49
2022/03/31 09:39:07;;;;;;;;;;;12.00;99.90;;;;;;5105537;28;19912;-49
2022/03/31 09:41:39;;;;;;;;;;;11.70;99.90;;;;;;5099422;27;19916;-52
2022/03/31 09:44:06;;;;;;;;;;;11.70;99.90;;;;;;5090644;28;19924;-52
2022/03/31 09:46:33;;;;;;;;;;;11.50;99.90;;;;;;5092166;28;20366;-48
2022/03/31 09:48:59;;;;;;;;;;;11.50;99.90;;;;;;5097356;28;19915;-48
2022/03/31 09:51:25;;;;;;;;;;;11.60;99.90;;;;;;5097556;28;19916;-48
2022/03/31 09:53:52;;;;;;;;;;;11.70;99.90;;;;;;5097698;28;20255;-46
2022/03/31 09:56:21;;;;;;;;;;;11.60;99.90;;;;;;5093701;28;19924;-48
2022/03/31 09:58:47;;;;;;;;;;;11.40;99.90;;;;;;5092400;28;19955;-46
2022/03/31 10:01:14;;;;;;;;;;;11.30;99.90;;;;;;5096786;28;19977;-45
2022/03/31 10:03:39;;;;;;;;;;;11.50;99.90;;;;;;5099214;28;19920;-49
2022/03/31 10:06:06;;;;;;;;;;;11.60;99.90;;;;;;5101720;28;20364;-46
2022/03/31 10:08:42;;;;;;;;;;;11.50;99.90;;;;;;5105115;28;20259;-46
2022/03/31 10:11:08;;;;;;;;;;;11.50;99.90;;;;;;5095613;28;19912;-47
2022/03/31 10:13:42;;;;;;;;;;;11.50;99.90;;;;;;5097087;28;19916;-48
2022/03/31 10:16:09;;;;;;;;;;;11.60;99.90;;;;;;5097509;28;19947;-44
2022/03/31 10:18:35;;;;;;;;;;;11.70;99.90;;;;;;5093052;28;19920;-44
2022/03/31 10:21:01;;;;;;;;;;;11.80;99.90;;;;;;5100896;28;19911;-46
2022/03/31 10:26:25;;;;;;;;;;;11.90;99.90;;;;;;5098516;28;20331;-48
2022/03/31 10:28:57;;;;;;;;;;;11.90;99.90;;;;;;5093772;28;20346;-49
2022/03/31 10:31:40;;;;;;;;;;;11.70;99.90;;;;;;5095121;28;19951;-44
2022/03/31 10:34:06;;;;;;;;;;;11.90;99.90;;;;;;5108489;28;20261;-44
2022/03/31 10:36:58;;;;;;;;;;;11.80;99.90;;;;;;5114044;28;19911;-48
2022/03/31 10:39:24;;;;;;;;;;;12.10;99.90;;;;;;5110838;28;19918;-46
2022/03/31 10:42:09;;;;;;;;;;;12.20;99.90;;;;;;5114032;28;19916;-48
2022/03/31 10:44:35;;;;;;;;;;;12.30;99.90;;;;;;5113354;28;20270;-46
2022/03/31 10:47:09;;;;;;;;;;;12.10;99.90;;;;;;5114035;28;19908;-48
2022/03/31 10:49:36;;;;;;;;;;;12.10;99.90;;;;;;5114577;28;20014;-47
2022/03/31 10:52:17;;;;;;;;;;;12.30;99.90;;;;;;5113100;28;19907;-46
2022/03/31 10:54:43;;;;;;;;;;;12.00;99.90;;;;;;5113789;28;19912;-44
2022/03/31 10:57:11;;;;;;;;;;;11.90;99.90;;;;;;5113860;28;20374;-48
2022/03/31 10:59:38;;;;;;;;;;;11.70;99.90;;;;;;5113912;28;20373;-44
2022/03/31 11:02:11;;;;;;;;;;;11.90;99.90;;;;;;5114051;28;19980;-49
2022/03/31 11:04:43;;;;;;;;;;;12.20;99.90;;;;;;5113950;28;20270;-48
2022/03/31 11:07:13;;;;;;;;;;;12.10;99.90;;;;;;5113355;28;19911;-47
2022/03/31 11:09:38;;;;;;;;;;;12.10;99.90;;;;;;5113500;28;19971;-45
2022/03/31 11:12:04;;;;;;;;;;;12.10;99.90;;;;;;5113490;28;19943;-50
2022/03/31 11:14:30;;;;;;;;;;;12.30;99.90;;;;;;5113662;28;19958;-46
2022/03/31 11:16:55;;;;;;;;;;;12.00;99.90;;;;;;5113762;28;19908;-45
2022/03/31 11:19:21;;;;;;;;;;;11.90;99.90;;;;;;5113472;28;19908;-46
2022/03/31 11:21:46;;;;;;;;;;;11.90;99.90;;;;;;5112950;28;19920;-46
2022/03/31 11:24:13;;;;;;;;;;;12.00;99.90;;;;;;5112984;28;19998;-45
2022/03/31 11:26:40;;;;;;;;;;;12.20;99.90;;;;;;5112997;28;19908;-47
2022/03/31 11:29:16;;;;;;;;;;;12.10;99.90;;;;;;5113170;28;19908;-45
2022/03/31 11:31:53;;;;;;;;;;;12.10;99.90;;;;;;5113645;28;19923;-44
2022/03/31 11:34:21;;;;;;;;;;;12.20;99.90;;;;;;5113390;28;19939;-44
2022/03/31 11:36:47;;;;;;;;;;;12.10;99.90;;;;;;5112132;28;20372;-47
2022/03/31 11:39:13;;;;;;;;;;;12.20;99.90;;;;;;5113177;28;19907;-44
2022/03/31 11:41:39;;;;;;;;;;;12.30;99.90;;;;;;5113308;28;19965;-48
2022/03/31 11:44:07;;;;;;;;;;;12.50;99.90;;;;;;5112994;28;20010;-43
2022/03/31 11:46:42;;;;;;;;;;;12.30;99.90;;;;;;5113399;28;19908;-47
2022/03/31 11:49:15;;;;;;;;;;;12.60;99.90;;;;;;5113137;28;19915;-46
2022/03/31 11:51:41;;;;;;;;;;;12.70;99.90;;;;;;5112885;28;19908;-45
2022/03/31 11:54:08;;;;;;;;;;;12.80;99.90;;;;;;5113443;28;20018;-45
2022/03/31 11:56:34;;;;;;;;;;;12.80;99.90;;;;;;5112156;28;19979;-48
2022/03/31 11:58:59;;;;;;;;;;;12.50;99.90;;;;;;5113234;28;19938;-43
2022/03/31 12:01:32;;;;;;;;;;;12.50;99.90;;;;;;5113002;28;20372;-47
2022/03/31 12:03:57;;;;;;;;;;;12.40;99.90;;;;;;5112934;28;19923;-49
2022/03/31 12:06:23;;;;;;;;;;;12.60;99.90;;;;;;5112719;28;20269;-46
2022/03/31 12:08:48;;;;;;;;;;;12.60;99.90;;;;;;5112913;28;19919;-46
2022/03/31 12:11:14;;;;;;;;;;;12.80;99.90;;;;;;5113627;28;19915;-50
2022/03/31 12:13:47;;;;;;;;;;;12.90;99.90;;;;;;5113148;28;20048;-45
2022/03/31 12:16:13;;;;;;;;;;;13.00;99.90;;;;;;5112882;28;20376;-45
2022/03/31 12:18:40;;;;;;;;;;;13.00;99.90;;;;;;5112885;28;20017;-49
2022/03/31 12:21:06;;;;;;;;;;;13.00;99.90;;;;;;5115939;28;20043;-47
2022/03/31 12:23:39;;;;;;;;;;;13.00;99.90;;;;;;5116973;28;20265;-44
2022/03/31 12:26:10;;;;;;;;;;;13.40;99.90;;;;;;5116861;28;19908;-46
2022/03/31 12:28:43;;;;;;;;;;;13.40;99.90;;;;;;5116862;28;20415;-44
2022/03/31 12:31:18;;;;;;;;;;;13.20;99.90;;;;;;5116424;28;20014;-47
2022/03/31 12:33:46;;;;;;;;;;;13.10;99.90;;;;;;5116701;28;19930;-48
2022/03/31 12:36:12;;;;;;;;;;;13.10;99.90;;;;;;5116679;28;19907;-44
2022/03/31 12:38:39;;;;;;;;;;;13.20;99.90;;;;;;5116492;28;20019;-44
2022/03/31 12:41:24;;;;;;;;;;;13.30;99.90;;;;;;5116360;28;20223;-47
2022/03/31 12:43:57;;;;;;;;;;;13.30;99.90;;;;;;5116300;28;19912;-48
2022/03/31 12:46:23;;;;;;;;;;;13.20;99.90;;;;;;5116223;28;20019;-48
2022/03/31 12:49:02;;;;;;;;;;;13.00;99.90;;;;;;5115980;28;20401;-45
2022/03/31 12:51:28;;;;;;;;;;;13.10;99.90;;;;;;5116182;28;19915;-48
2022/03/31 12:53:53;;;;;;;;;;;13.20;99.90;;;;;;5115898;28;19908;-46
2022/03/31 12:56:26;;;;;;;;;;;13.30;99.90;;;;;;5114483;28;19915;-45
2022/03/31 12:58:53;;;;;;;;;;;13.30;99.90;;;;;;5115468;28;19908;-48
2022/03/31 13:01:20;;;;;;;;;;;13.40;99.90;;;;;;5115936;28;20290;-48
2022/03/31 13:03:46;;;;;;;;;;;13.30;99.90;;;;;;5116161;28;20358;-46
2022/03/31 13:06:16;;;;;;;;;;;13.40;99.90;;;;;;5115567;28;19914;-50
2022/03/31 13:08:42;;;;;;;;;;;13.60;99.90;;;;;;5114086;28;20048;-48
2022/03/31 13:11:07;;;;;;;;;;;13.50;99.90;;;;;;5115911;28;19947;-47
2022/03/31 13:13:33;;;;;;;;;;;13.40;99.90;;;;;;5115959;28;19912;-51
2022/03/31 13:15:58;;;;;;;;;;;13.40;99.90;;;;;;5116011;28;19919;-50
2022/03/31 13:18:24;;;;;;;;;;;13.50;99.90;;;;;;5115580;28;19915;-44
2022/03/31 13:20:49;;;;;;;;;;;13.50;99.90;;;;;;5115525;28;19981;-44
2022/03/31 13:23:15;;;;;;;;;;;13.20;99.90;;;;;;5116012;28;20010;-46
2022/03/31 13:25:41;;;;;;;;;;;13.10;99.90;;;;;;5116103;28;19908;-45
2022/03/31 13:28:07;;;;;;;;;;;13.10;99.90;;;;;;5115645;28;19908;-47
2022/03/31 13:30:33;;;;;;;;;;;13.40;99.90;;;;;;5113428;28;19920;-45
2022/03/31 13:32:59;;;;;;;;;;;13.20;99.90;;;;;;5115595;28;19912;-45
2022/03/31 13:35:25;;;;;;;;;;;13.50;99.90;;;;;;5115236;28;20308;-45
2022/03/31 13:37:53;;;;;;;;;;;13.50;99.90;;;;;;5114041;28;19908;-44
2022/03/31 13:40:19;;;;;;;;;;;13.50;99.90;;;;;;5114101;28;19951;-48
2022/03/31 13:42:45;;;;;;;;;;;13.50;99.90;;;;;;5115285;28;20013;-47
2022/03/31 13:45:13;;;;;;;;;;;13.80;99.90;;;;;;5113824;28;19907;-46
2022/03/31 13:47:42;;;;;;;;;;;13.70;99.90;;;;;;5113942;28;20031;-46
2022/03/31 13:50:08;;;;;;;;;;;13.60;99.90;;;;;;5113828;28;19919;-45
2022/03/31 13:52:33;;;;;;;;;;;13.60;99.90;;;;;;5115383;28;20308;-44
2022/03/31 13:54:59;;;;;;;;;;;13.50;99.90;;;;;;5113779;28;19912;-46
2022/03/31 14:02:52;;;;;;;;;;;13.20;99.90;;;;;;5114667;28;20016;-48
2022/03/31 14:05:18;;;;;;;;;;;13.30;99.90;;;;;;5114614;28;19912;-48
2022/03/31 14:07:43;;;;;;;;;;;13.50;99.90;;;;;;5114918;28;19908;-46
2022/03/31 14:10:09;;;;;;;;;;;13.60;99.90;;;;;;5114397;28;19912;-44
2022/03/31 14:12:35;;;;;;;;;;;13.10;99.90;;;;;;5114587;28;19912;-43
2022/03/31 14:15:00;;;;;;;;;;;13.10;99.90;;;;;;5114490;28;19916;-46
2022/03/31 14:17:26;;;;;;;;;;;13.30;99.90;;;;;;5113993;28;19995;-48
2022/03/31 14:19:52;;;;;;;;;;;13.20;99.90;;;;;;5114319;28;20350;-46
2022/03/31 14:22:17;;;;;;;;;;;13.30;99.90;;;;;;5114588;28;19923;-46
2022/03/31 14:24:43;;;;;;;;;;;13.20;99.90;;;;;;5114289;28;19912;-46
2022/03/31 14:27:08;;;;;;;;;;;13.40;99.90;;;;;;5112917;28;19907;-45
2022/03/31 14:29:34;;;;;;;;;;;13.30;99.90;;;;;;5113946;28;19908;-46
2022/03/31 14:32:00;;;;;;;;;;;13.20;99.90;;;;;;5114360;28;19930;-47
2022/03/31 14:34:25;;;;;;;;;;;13.20;99.90;;;;;;5113855;28;19908;-46
2022/03/31 14:36:54;;;;;;;;;;;13.20;99.90;;;;;;5113443;28;19908;-47
2022/03/31 14:39:20;;;;;;;;;;;13.00;99.90;;;;;;5113303;28;19998;-46
2022/03/31 14:41:48;;;;;;;;;;;13.10;99.90;;;;;;5112060;28;19912;-45
2022/03/31 14:44:14;;;;;;;;;;;13.30;99.90;;;;;;5112583;28;20017;-48